sensor_id;sensor_type;location;lat;lon;timestamp;P1;durP1;ratioP1;P2;durP2;ratioP2
53646;SDS011;39550;52.230;5.194;2022-07-23T00:00:47;3.90;;;2.55;;
53646;SDS011;39550;52.230;5.194;2022-07-23T00:03:13;4.15;;;2.40;;
53646;SDS011;39550;52.230;5.194;2022-07-23T00:05:38;3.90;;;2.40;;
53646;SDS011;39550;52.230;5.194;2022-07-23T00:08:04;3.50;;;2.00;;
53646;SDS011;39550;52.230;5.194;2022-07-23T00:10:31;4.00;;;2.08;;
53646;SDS011;39550;52.230;5.194;2022-07-23T00:12:56;3.97;;;2.28;;
53646;SDS011;39550;52.230;5.194;2022-07-23T00:15:21;4.65;;;2.30;;
53646;SDS011;39550;52.230;5.194;2022-07-23T00:17:47;3.22;;;2.03;;
53646;SDS011;39550;52.230;5.194;2022-07-23T00:20:12;4.22;;;2.30;;
53646;SDS011;39550;52.230;5.194;2022-07-23T00:22:51;3.38;;;1.88;;
53646;SDS011;39550;52.230;5.194;2022-07-23T00:25:18;3.85;;;2.15;;
53646;SDS011;39550;52.230;5.194;2022-07-23T00:27:44;3.55;;;2.20;;
53646;SDS011;39550;52.230;5.194;2022-07-23T00:30:10;3.75;;;2.20;;
53646;SDS011;39550;52.230;5.194;2022-07-23T00:32:46;3.53;;;2.22;;
53646;SDS011;39550;52.230;5.194;2022-07-23T00:35:18;4.10;;;2.20;;
53646;SDS011;39550;52.230;5.194;2022-07-23T00:37:45;4.00;;;2.30;;
53646;SDS011;39550;52.230;5.194;2022-07-23T00:40:11;7.40;;;2.33;;
53646;SDS011;39550;52.230;5.194;2022-07-23T00:42:36;3.75;;;1.98;;
53646;SDS011;39550;52.230;5.194;2022-07-23T00:45:02;5.05;;;2.38;;
53646;SDS011;39550;52.230;5.194;2022-07-23T00:47:28;3.50;;;2.30;;
53646;SDS011;39550;52.230;5.194;2022-07-23T00:49:53;4.70;;;2.25;;
53646;SDS011;39550;52.230;5.194;2022-07-23T00:52:18;3.92;;;2.28;;
53646;SDS011;39550;52.230;5.194;2022-07-23T00:54:44;5.95;;;2.30;;
53646;SDS011;39550;52.230;5.194;2022-07-23T00:57:09;3.42;;;2.17;;
53646;SDS011;39550;52.230;5.194;2022-07-23T00:59:34;3.70;;;2.30;;
53646;SDS011;39550;52.230;5.194;2022-07-23T01:02:00;4.45;;;2.22;;
53646;SDS011;39550;52.230;5.194;2022-07-23T01:04:25;3.60;;;2.22;;
53646;SDS011;39550;52.230;5.194;2022-07-23T01:06:50;3.58;;;2.00;;
53646;SDS011;39550;52.230;5.194;2022-07-23T01:09:16;3.33;;;2.20;;
53646;SDS011;39550;52.230;5.194;2022-07-23T01:11:41;3.35;;;2.00;;
53646;SDS011;39550;52.230;5.194;2022-07-23T01:14:14;5.78;;;2.30;;
53646;SDS011;39550;52.230;5.194;2022-07-23T01:16:41;3.83;;;2.40;;
53646;SDS011;39550;52.230;5.194;2022-07-23T01:19:08;3.47;;;2.17;;
53646;SDS011;39550;52.230;5.194;2022-07-23T01:21:35;3.42;;;2.00;;
53646;SDS011;39550;52.230;5.194;2022-07-23T01:24:02;4.67;;;2.40;;
53646;SDS011;39550;52.230;5.194;2022-07-23T01:26:29;4.00;;;2.42;;
53646;SDS011;39550;52.230;5.194;2022-07-23T01:28:54;4.20;;;2.35;;
53646;SDS011;39550;52.230;5.194;2022-07-23T01:31:19;3.85;;;2.35;;
53646;SDS011;39550;52.230;5.194;2022-07-23T01:33:45;5.35;;;2.05;;
53646;SDS011;39550;52.230;5.194;2022-07-23T01:36:10;4.75;;;2.13;;
53646;SDS011;39550;52.230;5.194;2022-07-23T01:38:36;4.18;;;2.30;;
53646;SDS011;39550;52.230;5.194;2022-07-23T01:41:01;3.78;;;2.25;;
53646;SDS011;39550;52.230;5.194;2022-07-23T01:43:26;3.47;;;2.13;;
53646;SDS011;39550;52.230;5.194;2022-07-23T01:45:51;4.32;;;2.40;;
53646;SDS011;39550;52.230;5.194;2022-07-23T01:48:17;3.75;;;2.20;;
53646;SDS011;39550;52.230;5.194;2022-07-23T01:50:42;3.90;;;2.47;;
53646;SDS011;39550;52.230;5.194;2022-07-23T01:53:07;3.95;;;2.35;;
53646;SDS011;39550;52.230;5.194;2022-07-23T01:55:33;4.10;;;2.33;;
53646;SDS011;39550;52.230;5.194;2022-07-23T01:57:58;4.97;;;2.58;;
53646;SDS011;39550;52.230;5.194;2022-07-23T02:00:24;4.85;;;2.28;;
53646;SDS011;39550;52.230;5.194;2022-07-23T02:02:49;5.57;;;2.83;;
53646;SDS011;39550;52.230;5.194;2022-07-23T02:05:14;3.70;;;2.10;;
53646;SDS011;39550;52.230;5.194;2022-07-23T02:07:40;3.97;;;2.20;;
53646;SDS011;39550;52.230;5.194;2022-07-23T02:10:05;4.28;;;2.50;;
53646;SDS011;39550;52.230;5.194;2022-07-23T02:12:31;3.50;;;2.17;;
53646;SDS011;39550;52.230;5.194;2022-07-23T02:14:56;3.60;;;2.20;;
53646;SDS011;39550;52.230;5.194;2022-07-23T02:17:22;3.95;;;2.53;;
53646;SDS011;39550;52.230;5.194;2022-07-23T02:19:47;4.60;;;2.50;;
53646;SDS011;39550;52.230;5.194;2022-07-23T02:22:12;3.42;;;2.20;;
53646;SDS011;39550;52.230;5.194;2022-07-23T02:24:37;4.15;;;2.55;;
53646;SDS011;39550;52.230;5.194;2022-07-23T02:27:03;3.88;;;2.30;;
53646;SDS011;39550;52.230;5.194;2022-07-23T02:29:28;4.10;;;2.30;;
53646;SDS011;39550;52.230;5.194;2022-07-23T02:31:53;4.53;;;2.35;;
53646;SDS011;39550;52.230;5.194;2022-07-23T02:34:19;4.63;;;2.42;;
53646;SDS011;39550;52.230;5.194;2022-07-23T02:36:44;3.85;;;2.20;;
53646;SDS011;39550;52.230;5.194;2022-07-23T02:39:09;3.83;;;2.20;;
53646;SDS011;39550;52.230;5.194;2022-07-23T02:41:35;4.25;;;2.58;;
53646;SDS011;39550;52.230;5.194;2022-07-23T02:44:00;4.55;;;2.63;;
53646;SDS011;39550;52.230;5.194;2022-07-23T02:46:26;3.30;;;2.10;;
53646;SDS011;39550;52.230;5.194;2022-07-23T02:48:51;4.32;;;2.30;;
53646;SDS011;39550;52.230;5.194;2022-07-23T02:51:16;3.58;;;2.15;;
53646;SDS011;39550;52.230;5.194;2022-07-23T02:53:42;4.35;;;2.25;;
53646;SDS011;39550;52.230;5.194;2022-07-23T02:56:07;4.03;;;2.20;;
53646;SDS011;39550;52.230;5.194;2022-07-23T02:58:32;4.10;;;2.33;;
53646;SDS011;39550;52.230;5.194;2022-07-23T03:00:58;3.97;;;2.13;;
53646;SDS011;39550;52.230;5.194;2022-07-23T03:03:23;3.60;;;2.13;;
53646;SDS011;39550;52.230;5.194;2022-07-23T03:05:48;3.60;;;2.20;;
53646;SDS011;39550;52.230;5.194;2022-07-23T03:08:14;3.70;;;2.40;;
53646;SDS011;39550;52.230;5.194;2022-07-23T03:10:39;4.10;;;2.20;;
53646;SDS011;39550;52.230;5.194;2022-07-23T03:13:04;4.40;;;2.45;;
53646;SDS011;39550;52.230;5.194;2022-07-23T03:15:30;3.70;;;2.40;;
53646;SDS011;39550;52.230;5.194;2022-07-23T03:17:55;4.15;;;2.10;;
53646;SDS011;39550;52.230;5.194;2022-07-23T03:20:20;4.07;;;2.38;;
53646;SDS011;39550;52.230;5.194;2022-07-23T03:22:46;4.10;;;2.17;;
53646;SDS011;39550;52.230;5.194;2022-07-23T03:25:11;4.82;;;2.30;;
53646;SDS011;39550;52.230;5.194;2022-07-23T03:27:36;3.40;;;2.00;;
53646;SDS011;39550;52.230;5.194;2022-07-23T03:30:02;5.78;;;2.30;;
53646;SDS011;39550;52.230;5.194;2022-07-23T03:32:28;4.40;;;2.30;;
53646;SDS011;39550;52.230;5.194;2022-07-23T03:34:53;3.70;;;2.30;;
53646;SDS011;39550;52.230;5.194;2022-07-23T03:37:19;4.03;;;2.33;;
53646;SDS011;39550;52.230;5.194;2022-07-23T03:39:44;4.07;;;2.22;;
53646;SDS011;39550;52.230;5.194;2022-07-23T03:42:10;3.58;;;2.28;;
53646;SDS011;39550;52.230;5.194;2022-07-23T03:44:35;3.97;;;2.30;;
53646;SDS011;39550;52.230;5.194;2022-07-23T03:47:04;3.45;;;2.00;;
53646;SDS011;39550;52.230;5.194;2022-07-23T03:49:30;3.88;;;2.30;;
53646;SDS011;39550;52.230;5.194;2022-07-23T03:51:56;3.88;;;2.10;;
53646;SDS011;39550;52.230;5.194;2022-07-23T03:54:21;4.70;;;2.30;;
53646;SDS011;39550;52.230;5.194;2022-07-23T03:56:47;4.03;;;2.40;;
53646;SDS011;39550;52.230;5.194;2022-07-23T03:59:12;3.80;;;2.20;;
53646;SDS011;39550;52.230;5.194;2022-07-23T04:01:37;3.78;;;2.20;;
53646;SDS011;39550;52.230;5.194;2022-07-23T04:04:03;4.07;;;2.40;;
53646;SDS011;39550;52.230;5.194;2022-07-23T04:06:28;4.28;;;2.38;;
53646;SDS011;39550;52.230;5.194;2022-07-23T04:08:54;3.95;;;2.22;;
53646;SDS011;39550;52.230;5.194;2022-07-23T04:11:19;3.47;;;2.20;;
53646;SDS011;39550;52.230;5.194;2022-07-23T04:13:45;3.95;;;2.08;;
53646;SDS011;39550;52.230;5.194;2022-07-23T04:16:10;3.97;;;2.30;;
53646;SDS011;39550;52.230;5.194;2022-07-23T04:18:36;3.80;;;2.35;;
53646;SDS011;39550;52.230;5.194;2022-07-23T04:21:01;4.47;;;2.60;;
53646;SDS011;39550;52.230;5.194;2022-07-23T04:23:26;4.00;;;2.20;;
53646;SDS011;39550;52.230;5.194;2022-07-23T04:25:52;3.85;;;2.10;;
53646;SDS011;39550;52.230;5.194;2022-07-23T04:28:17;4.78;;;2.30;;
53646;SDS011;39550;52.230;5.194;2022-07-23T04:30:42;3.88;;;2.40;;
53646;SDS011;39550;52.230;5.194;2022-07-23T04:33:08;3.47;;;2.10;;
53646;SDS011;39550;52.230;5.194;2022-07-23T04:35:33;4.70;;;2.20;;
53646;SDS011;39550;52.230;5.194;2022-07-23T04:37:59;3.75;;;2.22;;
53646;SDS011;39550;52.230;5.194;2022-07-23T04:40:24;4.00;;;2.22;;
53646;SDS011;39550;52.230;5.194;2022-07-23T04:42:50;3.92;;;2.17;;
53646;SDS011;39550;52.230;5.194;2022-07-23T04:45:16;3.53;;;2.10;;
53646;SDS011;39550;52.230;5.194;2022-07-23T04:47:41;3.97;;;2.10;;
53646;SDS011;39550;52.230;5.194;2022-07-23T04:50:07;4.55;;;2.38;;
53646;SDS011;39550;52.230;5.194;2022-07-23T04:52:32;3.50;;;2.17;;
53646;SDS011;39550;52.230;5.194;2022-07-23T04:54:57;4.00;;;2.40;;
53646;SDS011;39550;52.230;5.194;2022-07-23T04:57:23;3.70;;;2.10;;
53646;SDS011;39550;52.230;5.194;2022-07-23T04:59:48;3.20;;;2.10;;
53646;SDS011;39550;52.230;5.194;2022-07-23T05:02:13;3.38;;;2.15;;
53646;SDS011;39550;52.230;5.194;2022-07-23T05:04:38;5.00;;;2.42;;
53646;SDS011;39550;52.230;5.194;2022-07-23T05:07:04;3.60;;;2.15;;
53646;SDS011;39550;52.230;5.194;2022-07-23T05:09:29;4.05;;;2.30;;
53646;SDS011;39550;52.230;5.194;2022-07-23T05:11:54;5.03;;;2.67;;
53646;SDS011;39550;52.230;5.194;2022-07-23T05:14:20;13.52;;;7.45;;
53646;SDS011;39550;52.230;5.194;2022-07-23T05:16:45;35.72;;;18.10;;
53646;SDS011;39550;52.230;5.194;2022-07-23T05:19:10;36.22;;;17.40;;
53646;SDS011;39550;52.230;5.194;2022-07-23T05:21:36;17.05;;;10.63;;
53646;SDS011;39550;52.230;5.194;2022-07-23T05:24:01;13.45;;;6.95;;
53646;SDS011;39550;52.230;5.194;2022-07-23T05:26:26;9.88;;;5.93;;
53646;SDS011;39550;52.230;5.194;2022-07-23T05:28:52;8.32;;;4.18;;
53646;SDS011;39550;52.230;5.194;2022-07-23T05:31:17;7.70;;;4.55;;
53646;SDS011;39550;52.230;5.194;2022-07-23T05:33:43;6.07;;;3.60;;
53646;SDS011;39550;52.230;5.194;2022-07-23T05:36:08;6.43;;;3.50;;
53646;SDS011;39550;52.230;5.194;2022-07-23T05:38:34;5.43;;;3.30;;
53646;SDS011;39550;52.230;5.194;2022-07-23T05:41:00;8.63;;;3.88;;
53646;SDS011;39550;52.230;5.194;2022-07-23T05:43:25;4.95;;;2.97;;
53646;SDS011;39550;52.230;5.194;2022-07-23T05:45:51;5.47;;;3.20;;
53646;SDS011;39550;52.230;5.194;2022-07-23T05:48:17;5.75;;;3.13;;
53646;SDS011;39550;52.230;5.194;2022-07-23T05:50:42;6.05;;;2.85;;
53646;SDS011;39550;52.230;5.194;2022-07-23T05:53:08;5.43;;;2.90;;
53646;SDS011;39550;52.230;5.194;2022-07-23T05:55:33;5.75;;;2.78;;
53646;SDS011;39550;52.230;5.194;2022-07-23T05:57:58;5.25;;;2.75;;
53646;SDS011;39550;52.230;5.194;2022-07-23T06:00:24;5.18;;;2.50;;
53646;SDS011;39550;52.230;5.194;2022-07-23T06:02:50;4.55;;;2.80;;
53646;SDS011;39550;52.230;5.194;2022-07-23T06:05:16;5.30;;;2.60;;
53646;SDS011;39550;52.230;5.194;2022-07-23T06:07:41;5.40;;;2.60;;
53646;SDS011;39550;52.230;5.194;2022-07-23T06:10:07;4.32;;;2.70;;
53646;SDS011;39550;52.230;5.194;2022-07-23T06:12:33;5.38;;;2.58;;
53646;SDS011;39550;52.230;5.194;2022-07-23T06:14:58;5.03;;;2.53;;
53646;SDS011;39550;52.230;5.194;2022-07-23T06:17:24;5.13;;;2.30;;
53646;SDS011;39550;52.230;5.194;2022-07-23T06:19:49;4.13;;;2.30;;
53646;SDS011;39550;52.230;5.194;2022-07-23T06:22:15;3.95;;;2.33;;
53646;SDS011;39550;52.230;5.194;2022-07-23T06:24:40;4.95;;;2.60;;
53646;SDS011;39550;52.230;5.194;2022-07-23T06:27:05;5.05;;;2.60;;
53646;SDS011;39550;52.230;5.194;2022-07-23T06:29:31;3.40;;;2.03;;
53646;SDS011;39550;52.230;5.194;2022-07-23T06:31:56;3.53;;;2.20;;
53646;SDS011;39550;52.230;5.194;2022-07-23T06:34:21;4.30;;;2.40;;
53646;SDS011;39550;52.230;5.194;2022-07-23T06:36:46;5.07;;;2.40;;
53646;SDS011;39550;52.230;5.194;2022-07-23T06:39:12;4.55;;;2.20;;
53646;SDS011;39550;52.230;5.194;2022-07-23T06:41:37;4.32;;;2.40;;
53646;SDS011;39550;52.230;5.194;2022-07-23T06:44:03;5.03;;;2.40;;
53646;SDS011;39550;52.230;5.194;2022-07-23T06:46:28;3.92;;;2.13;;
53646;SDS011;39550;52.230;5.194;2022-07-23T06:48:54;3.88;;;2.28;;
53646;SDS011;39550;52.230;5.194;2022-07-23T06:51:19;3.38;;;2.10;;
53646;SDS011;39550;52.230;5.194;2022-07-23T06:53:44;4.65;;;2.42;;
53646;SDS011;39550;52.230;5.194;2022-07-23T06:56:09;7.18;;;2.75;;
53646;SDS011;39550;52.230;5.194;2022-07-23T06:58:35;9.32;;;2.50;;
53646;SDS011;39550;52.230;5.194;2022-07-23T07:01:00;7.47;;;2.50;;
53646;SDS011;39550;52.230;5.194;2022-07-23T07:03:25;5.63;;;2.00;;
53646;SDS011;39550;52.230;5.194;2022-07-23T07:05:51;3.80;;;2.10;;
53646;SDS011;39550;52.230;5.194;2022-07-23T07:08:17;5.00;;;2.38;;
53646;SDS011;39550;52.230;5.194;2022-07-23T07:10:42;7.18;;;2.25;;
53646;SDS011;39550;52.230;5.194;2022-07-23T07:13:07;3.50;;;2.10;;
53646;SDS011;39550;52.230;5.194;2022-07-23T07:15:33;4.60;;;2.05;;
53646;SDS011;39550;52.230;5.194;2022-07-23T07:17:58;7.18;;;1.92;;
53646;SDS011;39550;52.230;5.194;2022-07-23T07:20:23;4.65;;;2.03;;
53646;SDS011;39550;52.230;5.194;2022-07-23T07:22:49;4.72;;;2.00;;
53646;SDS011;39550;52.230;5.194;2022-07-23T07:25:14;3.60;;;1.90;;
53646;SDS011;39550;52.230;5.194;2022-07-23T07:27:40;5.85;;;2.45;;
53646;SDS011;39550;52.230;5.194;2022-07-23T07:30:05;5.35;;;2.30;;
53646;SDS011;39550;52.230;5.194;2022-07-23T07:32:31;4.82;;;2.22;;
53646;SDS011;39550;52.230;5.194;2022-07-23T07:35:01;6.55;;;2.30;;
53646;SDS011;39550;52.230;5.194;2022-07-23T07:37:28;3.65;;;1.85;;
53646;SDS011;39550;52.230;5.194;2022-07-23T07:39:53;3.80;;;2.00;;
53646;SDS011;39550;52.230;5.194;2022-07-23T07:42:18;5.15;;;2.05;;
53646;SDS011;39550;52.230;5.194;2022-07-23T07:44:44;3.28;;;2.10;;
53646;SDS011;39550;52.230;5.194;2022-07-23T07:47:09;3.58;;;2.00;;
53646;SDS011;39550;52.230;5.194;2022-07-23T07:49:34;4.40;;;2.20;;
53646;SDS011;39550;52.230;5.194;2022-07-23T07:52:00;4.45;;;1.90;;
53646;SDS011;39550;52.230;5.194;2022-07-23T07:54:25;5.45;;;2.05;;
53646;SDS011;39550;52.230;5.194;2022-07-23T07:56:50;3.50;;;2.00;;
53646;SDS011;39550;52.230;5.194;2022-07-23T07:59:15;4.47;;;1.90;;
53646;SDS011;39550;52.230;5.194;2022-07-23T08:01:41;4.38;;;2.00;;
53646;SDS011;39550;52.230;5.194;2022-07-23T08:04:06;5.05;;;2.50;;
53646;SDS011;39550;52.230;5.194;2022-07-23T08:06:31;4.50;;;2.00;;
53646;SDS011;39550;52.230;5.194;2022-07-23T08:08:57;4.00;;;2.40;;
53646;SDS011;39550;52.230;5.194;2022-07-23T08:11:22;3.40;;;2.00;;
53646;SDS011;39550;52.230;5.194;2022-07-23T08:13:47;5.43;;;2.00;;
53646;SDS011;39550;52.230;5.194;2022-07-23T08:16:13;4.18;;;2.10;;
53646;SDS011;39550;52.230;5.194;2022-07-23T08:18:38;4.20;;;2.00;;
53646;SDS011;39550;52.230;5.194;2022-07-23T08:21:04;3.20;;;1.77;;
53646;SDS011;39550;52.230;5.194;2022-07-23T08:23:30;4.35;;;2.13;;
53646;SDS011;39550;52.230;5.194;2022-07-23T08:25:56;4.38;;;1.92;;
53646;SDS011;39550;52.230;5.194;2022-07-23T08:28:21;3.20;;;1.90;;
53646;SDS011;39550;52.230;5.194;2022-07-23T08:30:47;3.67;;;1.92;;
53646;SDS011;39550;52.230;5.194;2022-07-23T08:33:14;4.63;;;2.10;;
53646;SDS011;39550;52.230;5.194;2022-07-23T08:35:48;4.45;;;2.17;;
53646;SDS011;39550;52.230;5.194;2022-07-23T08:38:16;4.55;;;2.30;;
53646;SDS011;39550;52.230;5.194;2022-07-23T08:40:44;5.07;;;2.22;;
53646;SDS011;39550;52.230;5.194;2022-07-23T08:43:12;3.42;;;1.77;;
53646;SDS011;39550;52.230;5.194;2022-07-23T08:45:39;5.72;;;2.28;;
53646;SDS011;39550;52.230;5.194;2022-07-23T08:48:13;4.75;;;1.90;;
53646;SDS011;39550;52.230;5.194;2022-07-23T08:50:45;4.05;;;2.00;;
53646;SDS011;39550;52.230;5.194;2022-07-23T08:53:12;4.30;;;2.28;;
53646;SDS011;39550;52.230;5.194;2022-07-23T08:55:38;4.18;;;1.95;;
53646;SDS011;39550;52.230;5.194;2022-07-23T08:58:03;4.40;;;2.17;;
53646;SDS011;39550;52.230;5.194;2022-07-23T09:00:28;3.95;;;1.90;;
53646;SDS011;39550;52.230;5.194;2022-07-23T09:02:54;3.75;;;1.95;;
53646;SDS011;39550;52.230;5.194;2022-07-23T09:05:20;4.40;;;1.92;;
53646;SDS011;39550;52.230;5.194;2022-07-23T09:10:54;2.88;;;1.88;;
53646;SDS011;39550;52.230;5.194;2022-07-23T09:16:18;3.60;;;2.15;;
53646;SDS011;39550;52.230;5.194;2022-07-23T09:18:49;3.55;;;1.83;;
53646;SDS011;39550;52.230;5.194;2022-07-23T09:21:28;3.33;;;1.88;;
53646;SDS011;39550;52.230;5.194;2022-07-23T09:23:59;4.63;;;1.98;;
53646;SDS011;39550;52.230;5.194;2022-07-23T09:26:35;4.50;;;2.10;;
53646;SDS011;39550;52.230;5.194;2022-07-23T09:34:14;3.50;;;2.00;;
53646;SDS011;39550;52.230;5.194;2022-07-23T09:36:42;3.40;;;2.00;;
53646;SDS011;39550;52.230;5.194;2022-07-23T09:39:07;4.32;;;2.38;;
53646;SDS011;39550;52.230;5.194;2022-07-23T09:41:34;4.55;;;2.30;;
53646;SDS011;39550;52.230;5.194;2022-07-23T09:44:35;3.40;;;1.80;;
53646;SDS011;39550;52.230;5.194;2022-07-23T09:46:57;5.57;;;2.38;;
53646;SDS011;39550;52.230;5.194;2022-07-23T09:49:24;12.52;;;3.15;;
53646;SDS011;39550;52.230;5.194;2022-07-23T09:51:57;6.32;;;2.30;;
53646;SDS011;39550;52.230;5.194;2022-07-23T09:54:32;3.80;;;2.15;;
53646;SDS011;39550;52.230;5.194;2022-07-23T09:57:00;7.15;;;2.10;;
53646;SDS011;39550;52.230;5.194;2022-07-23T09:59:32;4.25;;;2.20;;
53646;SDS011;39550;52.230;5.194;2022-07-23T10:02:00;4.43;;;2.10;;
53646;SDS011;39550;52.230;5.194;2022-07-23T10:04:27;4.07;;;2.20;;
53646;SDS011;39550;52.230;5.194;2022-07-23T10:06:55;4.75;;;2.00;;
53646;SDS011;39550;52.230;5.194;2022-07-23T10:09:24;6.28;;;2.03;;
53646;SDS011;39550;52.230;5.194;2022-07-23T10:11:52;5.05;;;2.47;;
53646;SDS011;39550;52.230;5.194;2022-07-23T10:14:21;4.97;;;2.20;;
53646;SDS011;39550;52.230;5.194;2022-07-23T10:16:47;3.58;;;2.00;;
53646;SDS011;39550;52.230;5.194;2022-07-23T10:19:13;3.80;;;2.08;;
53646;SDS011;39550;52.230;5.194;2022-07-23T10:21:48;3.63;;;1.98;;
53646;SDS011;39550;52.230;5.194;2022-07-23T10:30:19;3.85;;;2.05;;
53646;SDS011;39550;52.230;5.194;2022-07-23T10:33:11;5.07;;;2.10;;
53646;SDS011;39550;52.230;5.194;2022-07-23T10:38:47;3.60;;;2.00;;
53646;SDS011;39550;52.230;5.194;2022-07-23T10:41:30;5.22;;;2.40;;
53646;SDS011;39550;52.230;5.194;2022-07-23T10:44:17;4.68;;;2.20;;
53646;SDS011;39550;52.230;5.194;2022-07-23T10:49:37;4.72;;;2.20;;
53646;SDS011;39550;52.230;5.194;2022-07-23T10:57:23;4.53;;;2.35;;
53646;SDS011;39550;52.230;5.194;2022-07-23T11:02:33;3.25;;;2.05;;
53646;SDS011;39550;52.230;5.194;2022-07-23T11:05:00;3.88;;;2.20;;
53646;SDS011;39550;52.230;5.194;2022-07-23T11:07:29;4.25;;;2.22;;
53646;SDS011;39550;52.230;5.194;2022-07-23T11:09:55;5.13;;;2.70;;
53646;SDS011;39550;52.230;5.194;2022-07-23T11:17:38;5.20;;;2.30;;
53646;SDS011;39550;52.230;5.194;2022-07-23T11:20:16;5.53;;;2.50;;
53646;SDS011;39550;52.230;5.194;2022-07-23T11:25:30;4.90;;;2.17;;
53646;SDS011;39550;52.230;5.194;2022-07-23T11:28:09;4.65;;;2.40;;
53646;SDS011;39550;52.230;5.194;2022-07-23T11:30:38;6.90;;;2.30;;
53646;SDS011;39550;52.230;5.194;2022-07-23T11:35:41;6.60;;;2.60;;
53646;SDS011;39550;52.230;5.194;2022-07-23T11:38:13;5.10;;;2.67;;
53646;SDS011;39550;52.230;5.194;2022-07-23T11:40:39;4.85;;;2.30;;
53646;SDS011;39550;52.230;5.194;2022-07-23T11:43:09;6.45;;;2.50;;
53646;SDS011;39550;52.230;5.194;2022-07-23T11:45:37;5.57;;;2.40;;
53646;SDS011;39550;52.230;5.194;2022-07-23T11:48:08;4.88;;;2.33;;
53646;SDS011;39550;52.230;5.194;2022-07-23T11:50:35;5.15;;;2.35;;
53646;SDS011;39550;52.230;5.194;2022-07-23T11:53:01;5.60;;;2.30;;
53646;SDS011;39550;52.230;5.194;2022-07-23T11:55:27;5.97;;;2.20;;
53646;SDS011;39550;52.230;5.194;2022-07-23T11:57:53;5.85;;;2.50;;
53646;SDS011;39550;52.230;5.194;2022-07-23T12:00:24;4.03;;;2.40;;
53646;SDS011;39550;52.230;5.194;2022-07-23T12:02:56;4.00;;;2.20;;
53646;SDS011;39550;52.230;5.194;2022-07-23T12:05:27;5.75;;;2.35;;
53646;SDS011;39550;52.230;5.194;2022-07-23T12:07:58;4.03;;;2.38;;
53646;SDS011;39550;52.230;5.194;2022-07-23T12:13:03;5.07;;;2.75;;
53646;SDS011;39550;52.230;5.194;2022-07-23T12:17:58;5.70;;;2.50;;
53646;SDS011;39550;52.230;5.194;2022-07-23T12:20:26;4.85;;;2.45;;
53646;SDS011;39550;52.230;5.194;2022-07-23T12:22:57;3.67;;;2.28;;
53646;SDS011;39550;52.230;5.194;2022-07-23T12:25:34;5.30;;;2.75;;
53646;SDS011;39550;52.230;5.194;2022-07-23T12:28:09;5.07;;;2.42;;
53646;SDS011;39550;52.230;5.194;2022-07-23T12:30:40;4.43;;;2.55;;
53646;SDS011;39550;52.230;5.194;2022-07-23T12:33:08;4.38;;;2.70;;
53646;SDS011;39550;52.230;5.194;2022-07-23T12:35:38;4.70;;;2.65;;
53646;SDS011;39550;52.230;5.194;2022-07-23T12:38:08;9.15;;;2.42;;
53646;SDS011;39550;52.230;5.194;2022-07-23T12:43:04;5.25;;;2.40;;
53646;SDS011;39550;52.230;5.194;2022-07-23T12:48:22;9.57;;;2.50;;
53646;SDS011;39550;52.230;5.194;2022-07-23T12:50:53;6.68;;;3.17;;
53646;SDS011;39550;52.230;5.194;2022-07-23T12:53:21;5.30;;;2.35;;
53646;SDS011;39550;52.230;5.194;2022-07-23T12:55:49;4.38;;;2.30;;
53646;SDS011;39550;52.230;5.194;2022-07-23T12:58:17;5.20;;;2.50;;
53646;SDS011;39550;52.230;5.194;2022-07-23T13:00:51;4.10;;;2.40;;
53646;SDS011;39550;52.230;5.194;2022-07-23T13:03:28;4.22;;;2.50;;
53646;SDS011;39550;52.230;5.194;2022-07-23T13:05:56;4.43;;;2.53;;
53646;SDS011;39550;52.230;5.194;2022-07-23T13:08:22;6.05;;;2.83;;
53646;SDS011;39550;52.230;5.194;2022-07-23T13:10:48;5.88;;;2.88;;
53646;SDS011;39550;52.230;5.194;2022-07-23T13:13:16;4.82;;;2.65;;
53646;SDS011;39550;52.230;5.194;2022-07-23T13:15:45;4.85;;;2.55;;
53646;SDS011;39550;52.230;5.194;2022-07-23T13:18:10;5.45;;;2.70;;
53646;SDS011;39550;52.230;5.194;2022-07-23T13:20:36;5.88;;;2.50;;
53646;SDS011;39550;52.230;5.194;2022-07-23T13:23:03;4.70;;;2.50;;
53646;SDS011;39550;52.230;5.194;2022-07-23T13:25:29;5.25;;;2.65;;
53646;SDS011;39550;52.230;5.194;2022-07-23T13:27:54;5.40;;;2.70;;
53646;SDS011;39550;52.230;5.194;2022-07-23T13:30:20;4.47;;;2.60;;
53646;SDS011;39550;52.230;5.194;2022-07-23T13:32:45;4.63;;;2.50;;
53646;SDS011;39550;52.230;5.194;2022-07-23T13:35:12;5.10;;;2.55;;
53646;SDS011;39550;52.230;5.194;2022-07-23T13:37:38;5.10;;;2.60;;
53646;SDS011;39550;52.230;5.194;2022-07-23T13:40:03;4.57;;;2.80;;
53646;SDS011;39550;52.230;5.194;2022-07-23T13:42:29;4.95;;;2.70;;
53646;SDS011;39550;52.230;5.194;2022-07-23T13:44:55;3.90;;;2.50;;
53646;SDS011;39550;52.230;5.194;2022-07-23T13:47:20;4.82;;;2.55;;
53646;SDS011;39550;52.230;5.194;2022-07-23T13:49:45;4.53;;;2.75;;
53646;SDS011;39550;52.230;5.194;2022-07-23T13:52:11;6.57;;;3.03;;
53646;SDS011;39550;52.230;5.194;2022-07-23T13:54:36;5.13;;;3.00;;
53646;SDS011;39550;52.230;5.194;2022-07-23T13:57:01;4.90;;;2.93;;
53646;SDS011;39550;52.230;5.194;2022-07-23T13:59:27;4.90;;;3.30;;
53646;SDS011;39550;52.230;5.194;2022-07-23T14:01:53;5.28;;;3.53;;
53646;SDS011;39550;52.230;5.194;2022-07-23T14:04:18;4.97;;;3.22;;
53646;SDS011;39550;52.230;5.194;2022-07-23T14:06:44;4.40;;;2.80;;
53646;SDS011;39550;52.230;5.194;2022-07-23T14:09:09;4.78;;;2.75;;
53646;SDS011;39550;52.230;5.194;2022-07-23T14:11:34;3.85;;;2.65;;
53646;SDS011;39550;52.230;5.194;2022-07-23T14:14:00;4.30;;;2.85;;
53646;SDS011;39550;52.230;5.194;2022-07-23T14:16:26;4.13;;;2.70;;
53646;SDS011;39550;52.230;5.194;2022-07-23T14:18:51;4.43;;;2.75;;
53646;SDS011;39550;52.230;5.194;2022-07-23T14:21:16;4.10;;;2.50;;
53646;SDS011;39550;52.230;5.194;2022-07-23T14:23:42;4.23;;;2.57;;
53646;SDS011;39550;52.230;5.194;2022-07-23T14:26:07;5.25;;;3.22;;
53646;SDS011;39550;52.230;5.194;2022-07-23T14:28:33;5.40;;;2.92;;
53646;SDS011;39550;52.230;5.194;2022-07-23T14:30:59;4.40;;;2.72;;
53646;SDS011;39550;52.230;5.194;2022-07-23T14:33:24;5.38;;;3.20;;
53646;SDS011;39550;52.230;5.194;2022-07-23T14:35:49;5.35;;;2.85;;
53646;SDS011;39550;52.230;5.194;2022-07-23T14:38:15;5.65;;;3.05;;
53646;SDS011;39550;52.230;5.194;2022-07-23T14:40:40;4.55;;;2.88;;
53646;SDS011;39550;52.230;5.194;2022-07-23T14:43:07;4.35;;;2.90;;
53646;SDS011;39550;52.230;5.194;2022-07-23T14:45:32;4.25;;;2.80;;
53646;SDS011;39550;52.230;5.194;2022-07-23T14:47:57;6.18;;;3.15;;
53646;SDS011;39550;52.230;5.194;2022-07-23T14:50:23;4.68;;;2.90;;
53646;SDS011;39550;52.230;5.194;2022-07-23T14:52:49;4.72;;;2.90;;
53646;SDS011;39550;52.230;5.194;2022-07-23T14:55:14;4.47;;;3.00;;
53646;SDS011;39550;52.230;5.194;2022-07-23T14:57:42;4.38;;;2.70;;
53646;SDS011;39550;52.230;5.194;2022-07-23T15:00:07;4.47;;;2.92;;
53646;SDS011;39550;52.230;5.194;2022-07-23T15:02:33;5.05;;;2.63;;
53646;SDS011;39550;52.230;5.194;2022-07-23T15:04:59;4.05;;;2.50;;
53646;SDS011;39550;52.230;5.194;2022-07-23T15:07:26;4.00;;;2.60;;
53646;SDS011;39550;52.230;5.194;2022-07-23T15:09:52;4.40;;;2.80;;
53646;SDS011;39550;52.230;5.194;2022-07-23T15:12:17;4.45;;;2.58;;
53646;SDS011;39550;52.230;5.194;2022-07-23T15:14:43;4.30;;;2.80;;
53646;SDS011;39550;52.230;5.194;2022-07-23T15:17:08;5.35;;;2.60;;
53646;SDS011;39550;52.230;5.194;2022-07-23T15:19:34;3.97;;;2.50;;
53646;SDS011;39550;52.230;5.194;2022-07-23T15:21:59;4.88;;;2.53;;
53646;SDS011;39550;52.230;5.194;2022-07-23T15:24:24;4.80;;;3.03;;
53646;SDS011;39550;52.230;5.194;2022-07-23T15:26:50;5.35;;;3.00;;
53646;SDS011;39550;52.230;5.194;2022-07-23T15:29:15;5.07;;;3.20;;
53646;SDS011;39550;52.230;5.194;2022-07-23T15:31:40;6.47;;;4.13;;
53646;SDS011;39550;52.230;5.194;2022-07-23T15:34:06;6.95;;;3.38;;
53646;SDS011;39550;52.230;5.194;2022-07-23T15:36:31;6.97;;;3.58;;